createdAt,value
2019-02-19T00:01:39.743Z,99.90
2019-02-19T00:04:30.283Z,99.90
2019-02-19T00:07:20.593Z,99.90
2019-02-19T00:10:10.673Z,99.90
2019-02-19T00:13:01.050Z,99.90
2019-02-19T00:15:51.273Z,99.90
2019-02-19T00:18:41.946Z,99.90
2019-02-19T00:21:32.093Z,99.90
2019-02-19T00:24:22.930Z,99.90
2019-02-19T00:27:13.053Z,99.90
2019-02-19T00:30:03.053Z,99.90
2019-02-19T00:32:53.562Z,99.90
2019-02-19T00:35:43.755Z,99.90
2019-02-19T00:38:34.761Z,99.90
2019-02-19T00:41:25.094Z,99.90
2019-02-19T00:44:15.374Z,99.90
2019-02-19T00:47:05.630Z,99.90
2019-02-19T00:49:55.810Z,99.90
2019-02-19T00:52:45.793Z,99.90
2019-02-19T00:55:36.136Z,99.90
2019-02-19T00:58:26.298Z,99.90
2019-02-19T01:01:16.574Z,99.90
2019-02-19T01:04:06.773Z,99.90
2019-02-19T01:06:57.230Z,99.90
2019-02-19T01:09:47.470Z,99.90
2019-02-19T01:12:37.687Z,99.90
2019-02-19T01:15:28.182Z,99.90
2019-02-19T01:18:18.458Z,99.90
2019-02-19T01:21:08.778Z,99.90
2019-02-19T01:23:58.859Z,99.90
2019-02-19T01:26:48.922Z,99.90
2019-02-19T01:29:39.081Z,99.90
2019-02-19T01:32:29.210Z,99.90
2019-02-19T01:35:20.058Z,99.90
2019-02-19T01:38:10.644Z,99.90
2019-02-19T01:41:00.890Z,99.90
2019-02-19T01:43:51.187Z,99.90
2019-02-19T01:46:41.921Z,99.90
2019-02-19T01:49:31.935Z,99.90
2019-02-19T01:52:22.113Z,99.90
2019-02-19T01:55:12.430Z,99.90
2019-02-19T01:58:02.339Z,99.90
2019-02-19T02:00:52.900Z,99.90
2019-02-19T02:03:43.761Z,99.90
2019-02-19T02:06:33.978Z,99.90
2019-02-19T02:09:24.065Z,99.90
2019-02-19T02:12:14.345Z,99.90
2019-02-19T02:15:04.686Z,99.90
2019-02-19T02:17:54.773Z,99.90
2019-02-19T02:20:45.041Z,99.90
2019-02-19T02:23:35.326Z,99.90
2019-02-19T02:26:25.742Z,99.90
2019-02-19T02:29:15.883Z,99.90
2019-02-19T02:32:06.081Z,99.90
2019-02-19T02:34:56.367Z,99.90
2019-02-19T02:37:46.870Z,99.90
2019-02-19T02:40:37.151Z,99.90
2019-02-19T02:43:27.585Z,99.90
2019-02-19T02:46:17.613Z,99.90
2019-02-19T02:49:07.954Z,99.90
2019-02-19T02:51:57.951Z,99.90
2019-02-19T02:54:48.019Z,99.90
2019-02-19T02:57:38.633Z,99.90
2019-02-19T03:00:29.022Z,99.90
2019-02-19T03:03:19.802Z,99.90
2019-02-19T03:06:32.062Z,99.90
2019-02-19T03:09:22.508Z,99.90
2019-02-19T03:12:12.774Z,99.90
2019-02-19T03:15:03.172Z,99.90
2019-02-19T03:17:53.254Z,99.90
2019-02-19T03:20:43.519Z,99.90
2019-02-19T03:23:33.757Z,99.90
2019-02-19T03:26:23.963Z,99.90
2019-02-19T03:29:14.192Z,99.90
2019-02-19T03:32:04.303Z,99.90
2019-02-19T03:34:54.687Z,99.90
2019-02-19T03:37:45.128Z,99.90
2019-02-19T03:40:35.951Z,99.90
2019-02-19T03:43:25.911Z,99.90
2019-02-19T03:46:16.633Z,99.90
2019-02-19T03:49:06.818Z,99.90
2019-02-19T03:51:56.961Z,99.90
2019-02-19T03:54:47.697Z,99.90
2019-02-19T03:57:37.666Z,99.90
2019-02-19T04:00:27.629Z,99.90
2019-02-19T04:03:18.259Z,99.90
2019-02-19T04:06:08.378Z,99.90
2019-02-19T04:08:58.450Z,99.90
2019-02-19T04:11:48.871Z,99.90
2019-02-19T04:14:38.822Z,99.90
2019-02-19T04:17:29.654Z,99.90
2019-02-19T04:20:19.934Z,99.90
2019-02-19T04:23:09.935Z,99.90
2019-02-19T04:25:59.941Z,99.90
2019-02-19T04:28:50.002Z,99.90
2019-02-19T04:31:40.430Z,99.90
2019-02-19T04:34:30.602Z,99.90
2019-02-19T04:37:20.970Z,99.90
2019-02-19T04:40:11.167Z,99.90
2019-02-19T04:43:01.678Z,99.90
2019-02-19T04:45:51.925Z,99.90
2019-02-19T04:48:42.192Z,99.90
2019-02-19T04:51:32.361Z,99.90
2019-02-19T04:54:22.455Z,99.90
2019-02-19T04:57:12.765Z,99.90
2019-02-19T05:00:03.206Z,99.90
2019-02-19T05:02:55.157Z,99.90
2019-02-19T05:05:46.122Z,99.90
2019-02-19T05:08:36.457Z,99.90
2019-02-19T05:11:26.437Z,99.90
2019-02-19T05:14:16.335Z,99.90
2019-02-19T05:17:06.521Z,99.90
2019-02-19T05:19:56.603Z,99.90
2019-02-19T05:22:47.010Z,99.90
2019-02-19T05:25:37.355Z,99.90
2019-02-19T05:28:27.423Z,99.90
2019-02-19T05:31:17.883Z,99.90
2019-02-19T05:34:08.216Z,99.90
2019-02-19T05:36:58.538Z,99.90
2019-02-19T05:39:48.549Z,99.90
2019-02-19T05:42:38.910Z,99.90
2019-02-19T05:45:29.641Z,99.90
2019-02-19T05:48:20.002Z,99.90
2019-02-19T05:51:09.886Z,99.90
2019-02-19T05:53:59.914Z,99.90
2019-02-19T05:56:50.272Z,99.90
2019-02-19T05:59:40.699Z,99.90
2019-02-19T06:02:31.793Z,99.90
2019-02-19T06:05:22.179Z,99.90
2019-02-19T06:08:12.462Z,99.90
2019-02-19T06:11:02.434Z,99.90
2019-02-19T06:13:53.130Z,99.90
2019-02-19T06:16:43.426Z,99.90
2019-02-19T06:19:33.734Z,99.90
2019-02-19T06:22:23.701Z,99.90
2019-02-19T06:25:13.796Z,99.90
2019-02-19T06:28:04.338Z,99.90
2019-02-19T06:30:54.830Z,99.90
2019-02-19T06:33:45.142Z,99.90
2019-02-19T06:36:35.191Z,99.90
2019-02-19T06:39:25.523Z,99.90
2019-02-19T06:42:16.386Z,99.90
2019-02-19T06:45:06.522Z,99.90
2019-02-19T06:47:56.698Z,99.90
2019-02-19T06:50:47.402Z,99.90
2019-02-19T06:53:37.518Z,99.90
2019-02-19T06:56:27.865Z,99.90
2019-02-19T06:59:18.141Z,99.90
2019-02-19T07:02:19.793Z,99.90
2019-02-19T07:05:15.391Z,99.90
2019-02-19T07:08:05.430Z,99.90
2019-02-19T07:10:55.763Z,99.90
2019-02-19T07:13:46.437Z,99.90
2019-02-19T07:16:36.682Z,99.90
2019-02-19T07:19:26.750Z,99.90
2019-02-19T07:22:16.918Z,99.90
2019-02-19T07:25:09.497Z,99.90
2019-02-19T07:27:59.402Z,99.90
2019-02-19T07:30:49.410Z,99.90
2019-02-19T07:33:39.687Z,99.90
2019-02-19T07:36:29.701Z,99.90
2019-02-19T07:39:19.638Z,99.90
2019-02-19T07:42:10.412Z,99.90
2019-02-19T07:45:00.650Z,99.90
2019-02-19T07:47:50.631Z,99.90
2019-02-19T07:50:42.022Z,99.90
2019-02-19T07:53:32.365Z,99.90
2019-02-19T07:56:22.397Z,99.90
2019-02-19T07:59:12.771Z,99.90
2019-02-19T08:02:03.275Z,99.50
2019-02-19T08:04:53.743Z,97.80
2019-02-19T08:07:44.229Z,96.60
2019-02-19T08:10:34.574Z,94.90
2019-02-19T08:13:24.869Z,92.50
2019-02-19T08:16:15.146Z,91.80
2019-02-19T08:19:05.481Z,90.60
2019-02-19T08:21:55.770Z,90.20
2019-02-19T08:24:46.306Z,88.40
2019-02-19T08:27:36.722Z,85.90
2019-02-19T08:30:27.150Z,84.10
2019-02-19T08:33:17.486Z,82.40
2019-02-19T08:36:08.435Z,81.70
2019-02-19T08:38:58.757Z,80.40
2019-02-19T08:41:48.758Z,79.50
2019-02-19T08:44:39.058Z,76.00
2019-02-19T08:47:29.203Z,74.50
2019-02-19T08:50:19.469Z,73.20
2019-02-19T08:53:09.714Z,72.90
2019-02-19T08:55:59.993Z,71.80
2019-02-19T08:58:50.278Z,70.10
2019-02-19T09:01:41.018Z,69.10
2019-02-19T09:04:31.295Z,68.60
2019-02-19T09:07:21.463Z,69.00
2019-02-19T09:10:11.505Z,68.70
2019-02-19T09:13:01.477Z,68.90
2019-02-19T09:15:51.744Z,68.30
2019-02-19T09:18:42.014Z,67.60
2019-02-19T09:21:32.326Z,66.30
2019-02-19T09:24:22.430Z,65.70
2019-02-19T09:27:12.909Z,66.40
2019-02-19T09:30:03.459Z,65.70
2019-02-19T09:32:55.130Z,65.40
2019-02-19T09:35:45.206Z,63.10
2019-02-19T09:38:35.453Z,64.00
2019-02-19T09:41:25.488Z,62.70
2019-02-19T09:44:16.849Z,62.60
2019-02-19T09:47:06.867Z,63.40
2019-02-19T09:49:56.961Z,63.60
2019-02-19T09:52:47.186Z,63.90
2019-02-19T09:55:37.226Z,65.00
2019-02-19T09:58:27.639Z,66.40
2019-02-19T10:01:18.106Z,67.60
2019-02-19T10:04:08.557Z,69.30
2019-02-19T10:06:58.635Z,72.40
2019-02-19T10:09:48.965Z,75.30
2019-02-19T10:12:39.137Z,78.80
2019-02-19T10:15:29.106Z,85.10
2019-02-19T10:18:19.310Z,87.40
2019-02-19T10:21:09.206Z,88.20
2019-02-19T10:23:59.394Z,89.30
2019-02-19T10:26:49.759Z,89.40
2019-02-19T10:29:40.502Z,90.40
2019-02-19T10:32:31.068Z,86.90
2019-02-19T10:35:21.119Z,85.40
2019-02-19T10:38:11.490Z,81.30
2019-02-19T10:41:01.749Z,82.00
2019-02-19T10:43:52.478Z,80.80
2019-02-19T10:46:42.530Z,79.60
2019-02-19T10:49:33.345Z,77.90
2019-02-19T10:52:23.466Z,80.80
2019-02-19T10:55:14.517Z,82.00
2019-02-19T10:58:05.059Z,81.90
2019-02-19T11:00:55.207Z,80.30
2019-02-19T11:03:45.337Z,81.90
2019-02-19T11:06:35.441Z,86.70
2019-02-19T11:09:25.746Z,88.60
2019-02-19T11:12:16.441Z,88.90
2019-02-19T11:15:07.252Z,86.30
2019-02-19T11:17:57.458Z,86.80
2019-02-19T11:20:47.696Z,80.40
2019-02-19T11:23:38.264Z,81.40
2019-02-19T11:26:29.150Z,81.60
2019-02-19T11:29:19.382Z,82.60
2019-02-19T11:32:09.291Z,85.10
2019-02-19T11:34:59.853Z,90.80
2019-02-19T11:37:49.887Z,86.20
2019-02-19T11:40:40.486Z,84.90
2019-02-19T11:43:30.766Z,85.30
2019-02-19T11:46:21.221Z,81.10
2019-02-19T11:49:11.506Z,81.60
2019-02-19T11:52:01.818Z,79.50
2019-02-19T11:54:52.159Z,82.60
2019-02-19T11:57:42.575Z,83.60
2019-02-19T12:00:36.108Z,81.30
2019-02-19T12:03:26.726Z,77.80
2019-02-19T12:06:16.797Z,76.50
2019-02-19T12:09:07.343Z,75.90
2019-02-19T12:11:57.397Z,77.60
2019-02-19T12:14:47.787Z,73.30
2019-02-19T12:17:38.075Z,75.50
2019-02-19T12:20:28.069Z,71.90
2019-02-19T12:23:18.105Z,72.20
2019-02-19T12:26:09.110Z,74.90
2019-02-19T12:28:59.254Z,74.00
2019-02-19T12:31:49.665Z,68.50
2019-02-19T12:34:39.901Z,68.30
2019-02-19T12:37:30.172Z,71.20
2019-02-19T12:40:20.326Z,68.50
2019-02-19T12:43:10.499Z,62.40
2019-02-19T12:46:00.819Z,62.70
2019-02-19T12:48:54.623Z,62.60
2019-02-19T12:51:43.131Z,67.00
2019-02-19T12:54:33.422Z,71.90
2019-02-19T12:57:23.622Z,75.20
2019-02-19T13:00:15.471Z,76.70
2019-02-19T13:03:05.850Z,77.70
2019-02-19T13:05:56.772Z,76.50
2019-02-19T13:08:47.722Z,75.40
2019-02-19T13:11:37.935Z,74.70
2019-02-19T13:14:28.043Z,76.10
2019-02-19T13:17:18.273Z,76.60
2019-02-19T13:20:10.253Z,74.60
2019-02-19T13:23:01.001Z,75.40
2019-02-19T13:25:51.109Z,78.00
2019-02-19T13:28:41.094Z,77.00
2019-02-19T13:31:31.140Z,78.20
2019-02-19T13:34:21.259Z,78.40
2019-02-19T13:37:11.553Z,79.90
2019-02-19T13:40:01.641Z,79.80
2019-02-19T13:42:51.658Z,78.10
2019-02-19T13:45:41.958Z,73.00
2019-02-19T13:48:33.311Z,69.70
2019-02-19T13:51:24.008Z,70.70
2019-02-19T13:54:31.777Z,72.10
2019-02-19T13:57:22.090Z,67.90
2019-02-19T14:00:18.150Z,65.10
2019-02-19T14:03:08.436Z,63.70
2019-02-19T14:05:58.343Z,60.50
2019-02-19T14:08:48.695Z,61.20
2019-02-19T14:11:38.794Z,63.90
2019-02-19T14:14:40.378Z,66.20
2019-02-19T14:17:30.630Z,67.70
2019-02-19T14:20:43.307Z,68.70
2019-02-19T14:23:58.525Z,66.00
2019-02-19T14:27:05.159Z,66.10
2019-02-19T14:30:17.942Z,66.00
2019-02-19T14:33:25.851Z,65.90
2019-02-19T14:36:34.014Z,65.90
2019-02-19T14:40:09.845Z,63.30
2019-02-19T14:43:27.553Z,61.10
2019-02-19T14:46:34.290Z,62.80
2019-02-19T14:49:47.484Z,65.40
2019-02-19T14:53:03.765Z,67.90
2019-02-19T14:56:22.170Z,66.70
2019-02-19T14:59:31.897Z,65.90
2019-02-19T15:02:31.840Z,66.90
2019-02-19T15:05:40.641Z,67.80
2019-02-19T15:08:58.969Z,69.00
2019-02-19T15:12:07.845Z,70.00
2019-02-19T15:15:13.690Z,69.30
2019-02-19T15:18:32.102Z,68.60
2019-02-19T15:21:47.976Z,69.40
2019-02-19T15:25:06.921Z,70.80
2019-02-19T15:28:14.660Z,72.50
2019-02-19T15:31:27.781Z,73.70
2019-02-19T15:34:29.294Z,76.20
2019-02-19T15:37:38.314Z,76.30
2019-02-19T15:40:50.759Z,75.00
2019-02-19T15:43:50.841Z,75.30
2019-02-19T15:47:06.369Z,76.00
2019-02-19T15:50:30.985Z,76.50
2019-02-19T15:53:42.786Z,79.70
2019-02-19T15:56:55.638Z,80.00
2019-02-19T16:00:04.470Z,79.80
2019-02-19T16:03:16.660Z,81.50
2019-02-19T16:06:25.818Z,81.50
2019-02-19T16:09:28.387Z,78.30
2019-02-19T16:12:45.131Z,79.30
2019-02-19T16:15:47.497Z,80.00
2019-02-19T16:18:55.626Z,81.00
2019-02-19T16:21:58.071Z,81.40
2019-02-19T16:25:04.829Z,82.90
2019-02-19T16:28:23.194Z,83.10
2019-02-19T16:31:38.434Z,85.70
2019-02-19T16:34:35.893Z,86.60
2019-02-19T16:37:27.989Z,88.90
2019-02-19T16:40:28.214Z,90.10
2019-02-19T16:43:35.983Z,90.90
2019-02-19T16:46:39.000Z,91.10
2019-02-19T16:49:38.530Z,91.70
2019-02-19T16:52:57.126Z,92.40
2019-02-19T16:56:00.178Z,93.00
2019-02-19T16:59:10.317Z,94.00
2019-02-19T17:02:28.672Z,95.30
2019-02-19T17:05:42.911Z,96.00
2019-02-19T17:09:03.749Z,96.90
2019-02-19T17:12:31.054Z,98.10
2019-02-19T17:15:49.242Z,99.00
2019-02-19T17:18:58.277Z,99.80
2019-02-19T17:21:59.022Z,99.90
2019-02-19T17:25:07.125Z,99.90
2019-02-19T17:28:16.115Z,99.90
2019-02-19T17:31:24.187Z,99.90
2019-02-19T17:34:46.436Z,99.90
2019-02-19T17:37:55.950Z,99.90
2019-02-19T17:41:07.040Z,99.90
